Saint Francis, KS

2:54 AM CST on February 12, 2016 (GMT -0600)
Cheyenne County Municipal | | Change Station
CLOSE
Current Station
Airport
Location: St. Francis,
Elevation: 3412 ft
Nearby Weather Stations

Elev 3412 ft 39.76 °N, 101.80 °W | Updated 19 minutes ago

Clear
Clear
31 °F
Feels Like 31 °F
N
0
Wind Variable Wind from North

Today
High -- | Low -- °F
--% Chance of Precip.
Yesterday
High -- | Low -- °F
Precip. -- in
Pressure 30.26 in
Visibility 10.0 miles
Clouds Clear
Dew Point 25 °F
Humidity 78%
Rainfall 0.00 in
Snow Depth Not available.
7:43 AM 6:19 PM
Waxing Crescent, 18% visible
METAR KSYF 120835Z AUTO 00000KT 10SM CLR 00/M04 A3026 RMK AO2 T10041038
Pressure 30.26 in
Visibility 10.0 miles
Clouds Clear
Dew Point 25 °F
Humidity 78%
Rainfall 0.00 in
Snow Depth Not available.
7:43 AM 6:19 PM
Waxing Crescent, 18% visible
METAR KSYF 120835Z AUTO 00000KT 10SM CLR 00/M04 A3026 RMK AO2 T10041038

10-Day Weather Forecast

Almanac

Astronomy

Feb. 12, 2016 Rise Set
Actual Time
Civil Twilight
Nautical Twilight
Astronomical Twilight
Moon
Length of Visible Light
Length of Day
Tomorrow will be .
, % of the Moon is Illuminated

Today's Extremes

State Highs State Lows

Community

WunderPhotos

Upload Photos

1,892,284 photos uploaded!

WunderBlog® & News

Nearby

Air Quality

  Air Quality AQ Index Pollutant
Not available.

Snow Depth

Station Depth Elevation

Earthquake Activity

City Distance Mag. Time & Date
Minimum magnitude displayed is 2.5.

Coastal Water Temperatures

Place Temperature

Stations

Nearby Weather Stations

Station Location Temp. Windchill Dew Point Humidity Wind Precip. Elev Updated Type
                   

Watches & Warnings

There are currently no watches in effect.